sensor_id;sensor_type;location;lat;lon;timestamp;temperature;humidity
49042;DHT22;34859;51.608;11.462;2024-02-14T00:00:15;2.50;99.90
49042;DHT22;34859;51.608;11.462;2024-02-14T00:03:02;2.50;99.90
49042;DHT22;34859;51.608;11.462;2024-02-14T00:05:48;2.50;99.90
49042;DHT22;34859;51.608;11.462;2024-02-14T00:08:34;2.50;99.90
49042;DHT22;34859;51.608;11.462;2024-02-14T00:11:20;2.50;99.90
49042;DHT22;34859;51.608;11.462;2024-02-14T00:14:05;2.50;99.90
49042;DHT22;34859;51.608;11.462;2024-02-14T00:16:52;2.50;99.90
49042;DHT22;34859;51.608;11.462;2024-02-14T00:19:38;2.60;99.90
49042;DHT22;34859;51.608;11.462;2024-02-14T00:22:25;2.60;99.90
49042;DHT22;34859;51.608;11.462;2024-02-14T00:25:11;2.70;99.90
49042;DHT22;34859;51.608;11.462;2024-02-14T00:27:57;2.70;99.90
49042;DHT22;34859;51.608;11.462;2024-02-14T00:30:46;2.80;99.90
49042;DHT22;34859;51.608;11.462;2024-02-14T00:33:32;2.90;99.90
49042;DHT22;34859;51.608;11.462;2024-02-14T00:36:18;2.90;99.90
49042;DHT22;34859;51.608;11.462;2024-02-14T00:39:04;2.90;99.90
49042;DHT22;34859;51.608;11.462;2024-02-14T00:41:50;2.90;99.90
49042;DHT22;34859;51.608;11.462;2024-02-14T00:44:38;3.00;99.90
49042;DHT22;34859;51.608;11.462;2024-02-14T00:47:24;3.00;99.90
49042;DHT22;34859;51.608;11.462;2024-02-14T00:50:10;3.10;99.90
49042;DHT22;34859;51.608;11.462;2024-02-14T00:52:56;3.10;99.90
49042;DHT22;34859;51.608;11.462;2024-02-14T00:55:42;3.10;99.90
49042;DHT22;34859;51.608;11.462;2024-02-14T00:58:28;3.10;99.90
49042;DHT22;34859;51.608;11.462;2024-02-14T01:01:14;3.10;99.90
49042;DHT22;34859;51.608;11.462;2024-02-14T01:03:59;3.10;99.90
49042;DHT22;34859;51.608;11.462;2024-02-14T01:06:45;3.10;99.90
49042;DHT22;34859;51.608;11.462;2024-02-14T01:09:31;3.10;99.90
49042;DHT22;34859;51.608;11.462;2024-02-14T01:12:17;3.20;99.90
49042;DHT22;34859;51.608;11.462;2024-02-14T01:15:04;3.20;99.90
49042;DHT22;34859;51.608;11.462;2024-02-14T01:17:50;3.40;99.90
49042;DHT22;34859;51.608;11.462;2024-02-14T01:20:36;3.50;99.90
49042;DHT22;34859;51.608;11.462;2024-02-14T01:23:23;3.50;99.90
49042;DHT22;34859;51.608;11.462;2024-02-14T01:26:08;3.60;99.90
49042;DHT22;34859;51.608;11.462;2024-02-14T01:28:54;3.60;99.90
49042;DHT22;34859;51.608;11.462;2024-02-14T01:31:40;3.60;99.90
49042;DHT22;34859;51.608;11.462;2024-02-14T01:34:26;3.80;99.90
49042;DHT22;34859;51.608;11.462;2024-02-14T01:37:14;4.10;99.90
49042;DHT22;34859;51.608;11.462;2024-02-14T01:39:59;4.20;99.90
49042;DHT22;34859;51.608;11.462;2024-02-14T01:42:45;4.40;99.90
49042;DHT22;34859;51.608;11.462;2024-02-14T01:45:31;4.50;99.90
49042;DHT22;34859;51.608;11.462;2024-02-14T01:48:17;4.50;99.90
49042;DHT22;34859;51.608;11.462;2024-02-14T01:51:05;4.60;99.90
49042;DHT22;34859;51.608;11.462;2024-02-14T01:53:54;4.70;99.90
49042;DHT22;34859;51.608;11.462;2024-02-14T01:56:41;4.70;99.90
49042;DHT22;34859;51.608;11.462;2024-02-14T01:59:27;4.70;99.90
49042;DHT22;34859;51.608;11.462;2024-02-14T02:02:13;4.70;99.90
49042;DHT22;34859;51.608;11.462;2024-02-14T02:04:59;4.70;99.90
49042;DHT22;34859;51.608;11.462;2024-02-14T02:07:46;4.80;99.90
49042;DHT22;34859;51.608;11.462;2024-02-14T02:10:34;4.70;99.90
49042;DHT22;34859;51.608;11.462;2024-02-14T02:13:20;4.70;99.90
49042;DHT22;34859;51.608;11.462;2024-02-14T02:16:06;4.80;99.90
49042;DHT22;34859;51.608;11.462;2024-02-14T02:18:53;4.80;99.90
49042;DHT22;34859;51.608;11.462;2024-02-14T02:21:41;4.80;99.90
49042;DHT22;34859;51.608;11.462;2024-02-14T02:24:28;4.90;99.90
49042;DHT22;34859;51.608;11.462;2024-02-14T02:27:14;4.90;99.90
49042;DHT22;34859;51.608;11.462;2024-02-14T02:30:01;4.90;99.90
49042;DHT22;34859;51.608;11.462;2024-02-14T02:32:48;4.90;99.90
49042;DHT22;34859;51.608;11.462;2024-02-14T02:35:34;4.90;99.90
49042;DHT22;34859;51.608;11.462;2024-02-14T02:38:20;4.90;99.90
49042;DHT22;34859;51.608;11.462;2024-02-14T02:41:07;4.90;99.90
49042;DHT22;34859;51.608;11.462;2024-02-14T02:43:53;5.00;99.90
49042;DHT22;34859;51.608;11.462;2024-02-14T02:46:40;5.00;99.90
49042;DHT22;34859;51.608;11.462;2024-02-14T02:49:26;5.00;99.90
49042;DHT22;34859;51.608;11.462;2024-02-14T02:52:12;4.90;99.90
49042;DHT22;34859;51.608;11.462;2024-02-14T02:54:58;4.90;99.90
49042;DHT22;34859;51.608;11.462;2024-02-14T02:57:45;4.90;99.90
49042;DHT22;34859;51.608;11.462;2024-02-14T03:00:31;4.90;99.90
49042;DHT22;34859;51.608;11.462;2024-02-14T03:03:17;4.90;99.90
49042;DHT22;34859;51.608;11.462;2024-02-14T03:06:04;4.80;99.90
49042;DHT22;34859;51.608;11.462;2024-02-14T03:08:50;4.80;99.90
49042;DHT22;34859;51.608;11.462;2024-02-14T03:11:37;4.80;99.90
49042;DHT22;34859;51.608;11.462;2024-02-14T03:14:24;4.80;99.90
49042;DHT22;34859;51.608;11.462;2024-02-14T03:17:10;4.80;99.90
49042;DHT22;34859;51.608;11.462;2024-02-14T03:19:56;4.90;99.90
49042;DHT22;34859;51.608;11.462;2024-02-14T03:22:42;4.90;99.90
49042;DHT22;34859;51.608;11.462;2024-02-14T03:25:30;4.90;99.90
49042;DHT22;34859;51.608;11.462;2024-02-14T03:28:16;5.00;99.90
49042;DHT22;34859;51.608;11.462;2024-02-14T03:31:02;5.00;99.90
49042;DHT22;34859;51.608;11.462;2024-02-14T03:33:48;5.10;99.90
49042;DHT22;34859;51.608;11.462;2024-02-14T03:36:37;5.20;99.90
49042;DHT22;34859;51.608;11.462;2024-02-14T03:39:23;5.30;99.90
49042;DHT22;34859;51.608;11.462;2024-02-14T03:42:08;5.30;99.90
49042;DHT22;34859;51.608;11.462;2024-02-14T03:44:54;5.30;99.90
49042;DHT22;34859;51.608;11.462;2024-02-14T03:47:48;5.30;99.90
49042;DHT22;34859;51.608;11.462;2024-02-14T03:50:34;5.30;99.90
49042;DHT22;34859;51.608;11.462;2024-02-14T03:53:20;5.40;99.90
49042;DHT22;34859;51.608;11.462;2024-02-14T03:56:06;5.40;99.90
49042;DHT22;34859;51.608;11.462;2024-02-14T03:58:53;5.50;99.90
49042;DHT22;34859;51.608;11.462;2024-02-14T04:01:44;5.40;99.90
49042;DHT22;34859;51.608;11.462;2024-02-14T04:04:30;5.40;99.90
49042;DHT22;34859;51.608;11.462;2024-02-14T04:07:17;5.40;99.90
49042;DHT22;34859;51.608;11.462;2024-02-14T04:10:03;5.40;99.90
49042;DHT22;34859;51.608;11.462;2024-02-14T04:12:49;5.50;99.90
49042;DHT22;34859;51.608;11.462;2024-02-14T04:15:35;5.60;99.90
49042;DHT22;34859;51.608;11.462;2024-02-14T04:18:21;5.70;99.90
49042;DHT22;34859;51.608;11.462;2024-02-14T04:21:08;5.70;99.90
49042;DHT22;34859;51.608;11.462;2024-02-14T04:23:53;5.70;99.90
49042;DHT22;34859;51.608;11.462;2024-02-14T04:26:39;5.70;99.90
49042;DHT22;34859;51.608;11.462;2024-02-14T04:29:25;5.80;99.90
49042;DHT22;34859;51.608;11.462;2024-02-14T04:32:14;5.80;99.90
49042;DHT22;34859;51.608;11.462;2024-02-14T04:35:00;5.90;99.90
49042;DHT22;34859;51.608;11.462;2024-02-14T04:37:47;5.90;99.90
49042;DHT22;34859;51.608;11.462;2024-02-14T04:40:34;5.80;99.90
49042;DHT22;34859;51.608;11.462;2024-02-14T04:43:20;5.90;99.90
49042;DHT22;34859;51.608;11.462;2024-02-14T04:46:06;5.90;99.90
49042;DHT22;34859;51.608;11.462;2024-02-14T04:48:53;5.90;99.90
49042;DHT22;34859;51.608;11.462;2024-02-14T04:51:39;6.00;99.90
49042;DHT22;34859;51.608;11.462;2024-02-14T04:54:25;6.00;99.90
49042;DHT22;34859;51.608;11.462;2024-02-14T04:57:11;6.00;99.90
49042;DHT22;34859;51.608;11.462;2024-02-14T04:59:58;6.00;99.90
49042;DHT22;34859;51.608;11.462;2024-02-14T05:02:44;6.10;99.90
49042;DHT22;34859;51.608;11.462;2024-02-14T05:05:30;6.00;99.90
49042;DHT22;34859;51.608;11.462;2024-02-14T05:08:15;6.00;99.90
49042;DHT22;34859;51.608;11.462;2024-02-14T05:11:01;6.00;99.90
49042;DHT22;34859;51.608;11.462;2024-02-14T05:13:47;6.00;99.90
49042;DHT22;34859;51.608;11.462;2024-02-14T05:16:34;6.00;99.90
49042;DHT22;34859;51.608;11.462;2024-02-14T05:19:21;6.00;99.90
49042;DHT22;34859;51.608;11.462;2024-02-14T05:22:07;6.00;99.90
49042;DHT22;34859;51.608;11.462;2024-02-14T05:24:53;6.00;99.90
49042;DHT22;34859;51.608;11.462;2024-02-14T05:27:39;6.00;99.90
49042;DHT22;34859;51.608;11.462;2024-02-14T05:30:26;6.00;99.90
49042;DHT22;34859;51.608;11.462;2024-02-14T05:33:12;5.90;99.90
49042;DHT22;34859;51.608;11.462;2024-02-14T05:35:58;5.90;99.90
49042;DHT22;34859;51.608;11.462;2024-02-14T05:38:44;5.80;99.90
49042;DHT22;34859;51.608;11.462;2024-02-14T05:41:30;5.80;99.90
49042;DHT22;34859;51.608;11.462;2024-02-14T05:44:18;5.80;99.90
49042;DHT22;34859;51.608;11.462;2024-02-14T05:47:04;5.80;99.90
49042;DHT22;34859;51.608;11.462;2024-02-14T05:49:51;5.80;99.90
49042;DHT22;34859;51.608;11.462;2024-02-14T05:52:37;5.80;99.90
49042;DHT22;34859;51.608;11.462;2024-02-14T05:55:24;5.70;99.90
49042;DHT22;34859;51.608;11.462;2024-02-14T05:58:10;5.70;99.90
49042;DHT22;34859;51.608;11.462;2024-02-14T06:00:56;5.80;99.90
49042;DHT22;34859;51.608;11.462;2024-02-14T06:03:42;5.80;99.90
49042;DHT22;34859;51.608;11.462;2024-02-14T06:06:31;5.80;99.90
49042;DHT22;34859;51.608;11.462;2024-02-14T06:09:17;5.70;99.90
49042;DHT22;34859;51.608;11.462;2024-02-14T06:12:03;5.60;99.90
49042;DHT22;34859;51.608;11.462;2024-02-14T06:14:49;5.70;99.90
49042;DHT22;34859;51.608;11.462;2024-02-14T06:17:35;5.70;99.90
49042;DHT22;34859;51.608;11.462;2024-02-14T06:20:21;5.60;99.90
49042;DHT22;34859;51.608;11.462;2024-02-14T06:23:08;5.70;99.90
49042;DHT22;34859;51.608;11.462;2024-02-14T06:25:54;5.70;99.90
49042;DHT22;34859;51.608;11.462;2024-02-14T06:28:40;6.00;99.90
49042;DHT22;34859;51.608;11.462;2024-02-14T06:31:26;6.20;99.90
49042;DHT22;34859;51.608;11.462;2024-02-14T06:34:12;6.30;99.90
49042;DHT22;34859;51.608;11.462;2024-02-14T06:36:57;6.40;99.90
49042;DHT22;34859;51.608;11.462;2024-02-14T06:39:43;6.30;99.90
49042;DHT22;34859;51.608;11.462;2024-02-14T06:42:29;6.40;99.90
49042;DHT22;34859;51.608;11.462;2024-02-14T06:45:15;6.40;99.90
49042;DHT22;34859;51.608;11.462;2024-02-14T06:48:01;6.30;99.90
49042;DHT22;34859;51.608;11.462;2024-02-14T06:50:47;6.30;99.90
49042;DHT22;34859;51.608;11.462;2024-02-14T06:53:33;6.40;99.90
49042;DHT22;34859;51.608;11.462;2024-02-14T06:56:19;6.40;99.90
49042;DHT22;34859;51.608;11.462;2024-02-14T06:59:05;6.50;99.90
49042;DHT22;34859;51.608;11.462;2024-02-14T07:01:51;6.50;99.90
49042;DHT22;34859;51.608;11.462;2024-02-14T07:04:40;6.60;99.90
49042;DHT22;34859;51.608;11.462;2024-02-14T07:07:26;6.50;99.90
49042;DHT22;34859;51.608;11.462;2024-02-14T07:10:13;6.60;99.90
49042;DHT22;34859;51.608;11.462;2024-02-14T07:12:59;6.60;99.90
49042;DHT22;34859;51.608;11.462;2024-02-14T07:15:45;6.60;99.90
49042;DHT22;34859;51.608;11.462;2024-02-14T07:18:31;6.70;99.90
49042;DHT22;34859;51.608;11.462;2024-02-14T07:21:17;6.70;99.90
49042;DHT22;34859;51.608;11.462;2024-02-14T07:24:03;6.80;99.90
49042;DHT22;34859;51.608;11.462;2024-02-14T07:26:49;6.80;99.90
49042;DHT22;34859;51.608;11.462;2024-02-14T07:29:35;6.80;99.90
49042;DHT22;34859;51.608;11.462;2024-02-14T07:32:21;6.90;99.90
49042;DHT22;34859;51.608;11.462;2024-02-14T07:35:07;6.90;99.90
49042;DHT22;34859;51.608;11.462;2024-02-14T07:37:53;6.90;99.90
49042;DHT22;34859;51.608;11.462;2024-02-14T07:40:39;7.00;99.90
49042;DHT22;34859;51.608;11.462;2024-02-14T07:43:25;7.00;99.90
49042;DHT22;34859;51.608;11.462;2024-02-14T07:46:16;7.00;99.90
49042;DHT22;34859;51.608;11.462;2024-02-14T07:49:02;7.00;99.90
49042;DHT22;34859;51.608;11.462;2024-02-14T07:51:48;7.10;99.90
49042;DHT22;34859;51.608;11.462;2024-02-14T07:54:33;7.20;99.90
49042;DHT22;34859;51.608;11.462;2024-02-14T07:57:21;7.20;99.90
49042;DHT22;34859;51.608;11.462;2024-02-14T08:00:08;7.30;99.90
49042;DHT22;34859;51.608;11.462;2024-02-14T08:02:55;7.30;99.90
49042;DHT22;34859;51.608;11.462;2024-02-14T08:05:41;7.40;99.90
49042;DHT22;34859;51.608;11.462;2024-02-14T08:08:28;7.40;99.90
49042;DHT22;34859;51.608;11.462;2024-02-14T08:11:14;7.60;99.90
49042;DHT22;34859;51.608;11.462;2024-02-14T08:14:00;7.60;99.90
49042;DHT22;34859;51.608;11.462;2024-02-14T08:16:46;7.70;99.90
49042;DHT22;34859;51.608;11.462;2024-02-14T08:19:32;7.70;99.90
49042;DHT22;34859;51.608;11.462;2024-02-14T08:22:18;7.80;99.90
49042;DHT22;34859;51.608;11.462;2024-02-14T08:25:04;7.90;99.90
49042;DHT22;34859;51.608;11.462;2024-02-14T08:27:50;7.90;99.90
49042;DHT22;34859;51.608;11.462;2024-02-14T08:30:36;7.90;99.90
49042;DHT22;34859;51.608;11.462;2024-02-14T08:33:23;7.90;99.90
49042;DHT22;34859;51.608;11.462;2024-02-14T08:36:09;8.00;99.90
49042;DHT22;34859;51.608;11.462;2024-02-14T08:38:55;8.00;99.90
49042;DHT22;34859;51.608;11.462;2024-02-14T08:41:43;8.10;99.90
49042;DHT22;34859;51.608;11.462;2024-02-14T08:44:30;8.10;99.90
49042;DHT22;34859;51.608;11.462;2024-02-14T08:47:17;8.10;99.90
49042;DHT22;34859;51.608;11.462;2024-02-14T08:50:06;8.10;99.90
49042;DHT22;34859;51.608;11.462;2024-02-14T08:52:52;8.10;99.90
49042;DHT22;34859;51.608;11.462;2024-02-14T08:55:39;8.00;99.90
49042;DHT22;34859;51.608;11.462;2024-02-14T08:58:25;8.00;99.90
49042;DHT22;34859;51.608;11.462;2024-02-14T09:01:11;8.00;99.90
49042;DHT22;34859;51.608;11.462;2024-02-14T09:03:58;8.00;99.90
49042;DHT22;34859;51.608;11.462;2024-02-14T09:06:44;8.00;99.90
49042;DHT22;34859;51.608;11.462;2024-02-14T09:09:31;8.00;99.90
49042;DHT22;34859;51.608;11.462;2024-02-14T09:12:17;8.00;99.90
49042;DHT22;34859;51.608;11.462;2024-02-14T09:15:03;8.10;99.90
49042;DHT22;34859;51.608;11.462;2024-02-14T09:17:50;8.10;99.90
49042;DHT22;34859;51.608;11.462;2024-02-14T09:20:37;8.20;99.90
49042;DHT22;34859;51.608;11.462;2024-02-14T09:23:25;8.20;99.90
49042;DHT22;34859;51.608;11.462;2024-02-14T09:26:11;8.20;99.90
49042;DHT22;34859;51.608;11.462;2024-02-14T09:28:57;8.30;99.90
49042;DHT22;34859;51.608;11.462;2024-02-14T09:31:43;8.30;99.90
49042;DHT22;34859;51.608;11.462;2024-02-14T09:34:32;8.40;99.90
49042;DHT22;34859;51.608;11.462;2024-02-14T09:37:18;8.40;99.90
49042;DHT22;34859;51.608;11.462;2024-02-14T09:40:05;8.40;99.90
49042;DHT22;34859;51.608;11.462;2024-02-14T09:42:55;8.40;99.90
49042;DHT22;34859;51.608;11.462;2024-02-14T09:45:44;8.40;99.90
49042;DHT22;34859;51.608;11.462;2024-02-14T09:48:30;8.50;99.90
49042;DHT22;34859;51.608;11.462;2024-02-14T09:51:18;8.50;99.90
49042;DHT22;34859;51.608;11.462;2024-02-14T09:54:04;8.60;99.90
49042;DHT22;34859;51.608;11.462;2024-02-14T09:56:50;8.60;99.90
49042;DHT22;34859;51.608;11.462;2024-02-14T09:59:40;8.70;99.90
49042;DHT22;34859;51.608;11.462;2024-02-14T10:02:26;8.70;99.90
49042;DHT22;34859;51.608;11.462;2024-02-14T10:05:12;8.70;99.90
49042;DHT22;34859;51.608;11.462;2024-02-14T10:07:58;8.80;99.90
49042;DHT22;34859;51.608;11.462;2024-02-14T10:10:44;8.80;99.90
49042;DHT22;34859;51.608;11.462;2024-02-14T10:13:30;8.80;99.90
49042;DHT22;34859;51.608;11.462;2024-02-14T10:16:17;8.90;99.90
49042;DHT22;34859;51.608;11.462;2024-02-14T10:19:04;8.90;99.90
49042;DHT22;34859;51.608;11.462;2024-02-14T10:22:00;9.00;99.90
49042;DHT22;34859;51.608;11.462;2024-02-14T10:24:48;9.00;99.90
49042;DHT22;34859;51.608;11.462;2024-02-14T10:27:43;9.10;99.90
49042;DHT22;34859;51.608;11.462;2024-02-14T10:30:29;9.10;99.90
49042;DHT22;34859;51.608;11.462;2024-02-14T10:33:16;9.20;99.90
49042;DHT22;34859;51.608;11.462;2024-02-14T10:36:03;9.30;99.90
49042;DHT22;34859;51.608;11.462;2024-02-14T10:38:54;9.30;99.90
49042;DHT22;34859;51.608;11.462;2024-02-14T10:41:41;9.40;99.90
49042;DHT22;34859;51.608;11.462;2024-02-14T10:44:27;9.50;99.90
49042;DHT22;34859;51.608;11.462;2024-02-14T10:47:18;9.60;99.90
49042;DHT22;34859;51.608;11.462;2024-02-14T10:50:07;9.70;99.90
49042;DHT22;34859;51.608;11.462;2024-02-14T10:52:57;9.60;99.90
49042;DHT22;34859;51.608;11.462;2024-02-14T10:55:49;9.70;99.90
49042;DHT22;34859;51.608;11.462;2024-02-14T10:58:35;9.70;99.90
49042;DHT22;34859;51.608;11.462;2024-02-14T11:01:22;9.80;99.90
49042;DHT22;34859;51.608;11.462;2024-02-14T11:04:11;9.90;99.90
49042;DHT22;34859;51.608;11.462;2024-02-14T11:06:58;10.00;99.90
49042;DHT22;34859;51.608;11.462;2024-02-14T11:09:48;10.00;99.90
49042;DHT22;34859;51.608;11.462;2024-02-14T11:12:35;10.00;99.90
49042;DHT22;34859;51.608;11.462;2024-02-14T11:15:25;10.10;99.90
49042;DHT22;34859;51.608;11.462;2024-02-14T11:18:11;10.10;99.90
49042;DHT22;34859;51.608;11.462;2024-02-14T11:20:57;10.10;99.90
49042;DHT22;34859;51.608;11.462;2024-02-14T11:23:54;10.10;99.90
49042;DHT22;34859;51.608;11.462;2024-02-14T11:26:47;10.20;99.90
49042;DHT22;34859;51.608;11.462;2024-02-14T11:29:33;10.30;99.90
49042;DHT22;34859;51.608;11.462;2024-02-14T11:32:19;10.30;99.90
49042;DHT22;34859;51.608;11.462;2024-02-14T11:35:11;10.30;99.90
49042;DHT22;34859;51.608;11.462;2024-02-14T11:37:58;10.20;99.90
49042;DHT22;34859;51.608;11.462;2024-02-14T11:40:46;10.30;99.90
49042;DHT22;34859;51.608;11.462;2024-02-14T11:43:32;10.30;99.90
49042;DHT22;34859;51.608;11.462;2024-02-14T11:46:18;10.30;99.90
49042;DHT22;34859;51.608;11.462;2024-02-14T11:49:05;10.40;99.90
49042;DHT22;34859;51.608;11.462;2024-02-14T11:51:51;10.40;99.90
49042;DHT22;34859;51.608;11.462;2024-02-14T11:54:38;10.40;99.90
49042;DHT22;34859;51.608;11.462;2024-02-14T11:57:25;10.30;99.90
49042;DHT22;34859;51.608;11.462;2024-02-14T12:00:13;10.30;99.90
49042;DHT22;34859;51.608;11.462;2024-02-14T12:03:00;10.30;99.90
49042;DHT22;34859;51.608;11.462;2024-02-14T12:05:48;10.30;99.90
49042;DHT22;34859;51.608;11.462;2024-02-14T12:08:36;10.40;99.90
49042;DHT22;34859;51.608;11.462;2024-02-14T12:11:24;10.40;99.90
49042;DHT22;34859;51.608;11.462;2024-02-14T12:14:10;10.40;99.90
49042;DHT22;34859;51.608;11.462;2024-02-14T12:17:00;10.30;99.90
49042;DHT22;34859;51.608;11.462;2024-02-14T12:19:49;10.40;99.90
49042;DHT22;34859;51.608;11.462;2024-02-14T12:22:37;10.50;99.90
49042;DHT22;34859;51.608;11.462;2024-02-14T12:25:23;10.60;99.90
49042;DHT22;34859;51.608;11.462;2024-02-14T12:28:17;10.60;99.90
49042;DHT22;34859;51.608;11.462;2024-02-14T12:31:03;10.60;99.90
49042;DHT22;34859;51.608;11.462;2024-02-14T12:33:49;10.50;99.90
49042;DHT22;34859;51.608;11.462;2024-02-14T12:36:38;10.40;99.90
49042;DHT22;34859;51.608;11.462;2024-02-14T12:39:24;10.40;99.90
49042;DHT22;34859;51.608;11.462;2024-02-14T12:42:11;10.50;99.90
49042;DHT22;34859;51.608;11.462;2024-02-14T12:44:57;10.60;99.90
49042;DHT22;34859;51.608;11.462;2024-02-14T12:47:44;10.70;99.90
49042;DHT22;34859;51.608;11.462;2024-02-14T12:50:31;10.80;99.90
49042;DHT22;34859;51.608;11.462;2024-02-14T12:53:17;10.80;99.90
49042;DHT22;34859;51.608;11.462;2024-02-14T12:56:06;10.90;99.90
49042;DHT22;34859;51.608;11.462;2024-02-14T12:58:53;11.10;99.90
49042;DHT22;34859;51.608;11.462;2024-02-14T13:01:39;11.20;99.90
49042;DHT22;34859;51.608;11.462;2024-02-14T13:04:26;11.10;99.90
49042;DHT22;34859;51.608;11.462;2024-02-14T13:07:12;11.00;99.90
49042;DHT22;34859;51.608;11.462;2024-02-14T13:10:00;10.80;99.90
49042;DHT22;34859;51.608;11.462;2024-02-14T13:12:46;10.80;99.90
49042;DHT22;34859;51.608;11.462;2024-02-14T13:15:32;10.70;99.90
49042;DHT22;34859;51.608;11.462;2024-02-14T13:18:19;10.70;99.90
49042;DHT22;34859;51.608;11.462;2024-02-14T13:21:05;10.60;99.90
49042;DHT22;34859;51.608;11.462;2024-02-14T13:23:51;10.50;99.90
49042;DHT22;34859;51.608;11.462;2024-02-14T13:26:37;10.50;99.90
49042;DHT22;34859;51.608;11.462;2024-02-14T13:29:24;10.50;99.90
49042;DHT22;34859;51.608;11.462;2024-02-14T13:32:10;10.50;99.90
49042;DHT22;34859;51.608;11.462;2024-02-14T13:34:56;10.40;99.90
49042;DHT22;34859;51.608;11.462;2024-02-14T13:37:43;10.40;99.90
49042;DHT22;34859;51.608;11.462;2024-02-14T13:40:31;10.40;99.90
49042;DHT22;34859;51.608;11.462;2024-02-14T13:43:17;10.50;99.90
49042;DHT22;34859;51.608;11.462;2024-02-14T13:46:03;10.40;99.90
49042;DHT22;34859;51.608;11.462;2024-02-14T13:48:49;10.40;99.90
49042;DHT22;34859;51.608;11.462;2024-02-14T13:51:36;10.30;99.90
49042;DHT22;34859;51.608;11.462;2024-02-14T13:54:22;10.30;99.90
49042;DHT22;34859;51.608;11.462;2024-02-14T13:57:10;10.40;99.90
49042;DHT22;34859;51.608;11.462;2024-02-14T13:59:57;10.40;99.90
49042;DHT22;34859;51.608;11.462;2024-02-14T14:02:43;10.40;99.90
49042;DHT22;34859;51.608;11.462;2024-02-14T14:05:29;10.40;99.90
49042;DHT22;34859;51.608;11.462;2024-02-14T14:08:15;10.40;99.90
49042;DHT22;34859;51.608;11.462;2024-02-14T14:11:02;10.50;99.90
49042;DHT22;34859;51.608;11.462;2024-02-14T14:13:49;10.40;99.90
49042;DHT22;34859;51.608;11.462;2024-02-14T14:16:35;10.40;99.90
49042;DHT22;34859;51.608;11.462;2024-02-14T14:19:21;10.40;99.90
49042;DHT22;34859;51.608;11.462;2024-02-14T14:22:07;10.40;99.90
49042;DHT22;34859;51.608;11.462;2024-02-14T14:24:53;10.50;99.90
49042;DHT22;34859;51.608;11.462;2024-02-14T14:27:39;10.40;99.90
49042;DHT22;34859;51.608;11.462;2024-02-14T14:30:25;10.40;99.90
49042;DHT22;34859;51.608;11.462;2024-02-14T14:33:11;10.40;99.90
49042;DHT22;34859;51.608;11.462;2024-02-14T14:35:57;10.40;99.90
49042;DHT22;34859;51.608;11.462;2024-02-14T14:38:43;10.40;99.90
49042;DHT22;34859;51.608;11.462;2024-02-14T14:41:29;10.40;99.90
49042;DHT22;34859;51.608;11.462;2024-02-14T14:44:15;10.50;99.90
49042;DHT22;34859;51.608;11.462;2024-02-14T14:47:02;10.40;99.90
49042;DHT22;34859;51.608;11.462;2024-02-14T14:49:48;10.50;99.90
49042;DHT22;34859;51.608;11.462;2024-02-14T14:52:34;10.50;99.90
49042;DHT22;34859;51.608;11.462;2024-02-14T14:55:20;10.50;99.90
49042;DHT22;34859;51.608;11.462;2024-02-14T14:58:13;10.50;99.90
49042;DHT22;34859;51.608;11.462;2024-02-14T15:00:59;10.40;99.90
49042;DHT22;34859;51.608;11.462;2024-02-14T15:03:45;10.40;99.90
49042;DHT22;34859;51.608;11.462;2024-02-14T15:06:32;10.30;99.90
49042;DHT22;34859;51.608;11.462;2024-02-14T15:09:18;10.30;99.90
49042;DHT22;34859;51.608;11.462;2024-02-14T15:12:04;10.20;99.90
49042;DHT22;34859;51.608;11.462;2024-02-14T15:14:50;10.10;99.90
49042;DHT22;34859;51.608;11.462;2024-02-14T15:17:36;10.10;99.90
49042;DHT22;34859;51.608;11.462;2024-02-14T15:20:22;10.10;99.90
49042;DHT22;34859;51.608;11.462;2024-02-14T15:23:08;10.10;99.90
49042;DHT22;34859;51.608;11.462;2024-02-14T15:25:54;10.10;99.90
49042;DHT22;34859;51.608;11.462;2024-02-14T15:28:48;10.10;99.90
49042;DHT22;34859;51.608;11.462;2024-02-14T15:31:41;10.00;99.90
49042;DHT22;34859;51.608;11.462;2024-02-14T15:34:46;10.10;99.90
49042;DHT22;34859;51.608;11.462;2024-02-14T15:37:32;10.00;99.90
49042;DHT22;34859;51.608;11.462;2024-02-14T15:40:18;10.00;99.90
49042;DHT22;34859;51.608;11.462;2024-02-14T15:43:04;10.00;99.90
49042;DHT22;34859;51.608;11.462;2024-02-14T15:45:51;9.90;99.90
49042;DHT22;34859;51.608;11.462;2024-02-14T15:48:37;9.90;99.90
49042;DHT22;34859;51.608;11.462;2024-02-14T15:51:23;9.90;99.90
49042;DHT22;34859;51.608;11.462;2024-02-14T15:54:10;9.90;99.90
49042;DHT22;34859;51.608;11.462;2024-02-14T15:56:56;9.90;99.90
49042;DHT22;34859;51.608;11.462;2024-02-14T15:59:42;9.90;99.90
49042;DHT22;34859;51.608;11.462;2024-02-14T16:02:28;9.90;99.90
49042;DHT22;34859;51.608;11.462;2024-02-14T16:05:14;9.80;99.90
49042;DHT22;34859;51.608;11.462;2024-02-14T16:08:01;9.90;99.90
49042;DHT22;34859;51.608;11.462;2024-02-14T16:10:47;9.80;99.90
49042;DHT22;34859;51.608;11.462;2024-02-14T16:13:34;9.80;99.90
49042;DHT22;34859;51.608;11.462;2024-02-14T16:16:21;9.80;99.90
49042;DHT22;34859;51.608;11.462;2024-02-14T16:19:07;9.80;99.90
49042;DHT22;34859;51.608;11.462;2024-02-14T16:21:53;9.80;99.90
49042;DHT22;34859;51.608;11.462;2024-02-14T16:24:39;9.80;99.90
49042;DHT22;34859;51.608;11.462;2024-02-14T16:27:25;9.80;99.90
49042;DHT22;34859;51.608;11.462;2024-02-14T16:30:11;9.80;99.90
49042;DHT22;34859;51.608;11.462;2024-02-14T16:32:57;9.80;99.90
49042;DHT22;34859;51.608;11.462;2024-02-14T16:35:43;9.80;99.90
49042;DHT22;34859;51.608;11.462;2024-02-14T16:38:29;9.80;99.90
49042;DHT22;34859;51.608;11.462;2024-02-14T16:41:16;9.80;99.90
49042;DHT22;34859;51.608;11.462;2024-02-14T16:44:02;9.80;99.90
49042;DHT22;34859;51.608;11.462;2024-02-14T16:46:48;9.80;99.90
49042;DHT22;34859;51.608;11.462;2024-02-14T16:49:35;9.70;99.90
49042;DHT22;34859;51.608;11.462;2024-02-14T16:52:21;9.70;99.90
49042;DHT22;34859;51.608;11.462;2024-02-14T16:55:09;9.80;99.90
49042;DHT22;34859;51.608;11.462;2024-02-14T16:57:56;9.80;99.90
49042;DHT22;34859;51.608;11.462;2024-02-14T17:00:47;9.70;99.90
49042;DHT22;34859;51.608;11.462;2024-02-14T17:03:32;9.70;99.90
49042;DHT22;34859;51.608;11.462;2024-02-14T17:06:19;9.80;99.90
49042;DHT22;34859;51.608;11.462;2024-02-14T17:09:05;9.70;99.90
49042;DHT22;34859;51.608;11.462;2024-02-14T17:11:52;9.70;99.90
49042;DHT22;34859;51.608;11.462;2024-02-14T17:14:38;9.80;99.90
49042;DHT22;34859;51.608;11.462;2024-02-14T17:17:24;9.80;99.90
49042;DHT22;34859;51.608;11.462;2024-02-14T17:20:10;9.80;99.90
49042;DHT22;34859;51.608;11.462;2024-02-14T17:22:56;9.80;99.90
49042;DHT22;34859;51.608;11.462;2024-02-14T17:25:44;9.80;99.90
49042;DHT22;34859;51.608;11.462;2024-02-14T17:28:30;9.70;99.90